Cameron, New York
Current Conditions -  °F | °C
As of 6:53 AM on Thursday 23 Oct 2014 (Local Time) from KELM Reporting Station
Overcast Overcast  
Wind Chill: 43°   Ceiling: 1800
Heat Index: 48°   Visibility: 10mi
Dew Point: 42°   Wind: 12mph
Humidity: 80%   Direction: 360°N
Pressure: 29.98"   Gusts: 21mph
Location:  42.2°N, 77.41°W
Report Text: KELM 231053Z 36010G18KT 310V030 10SM OVC018 09/06 A2998 RMK AO2 SLP155 T00890056 $
Loading
Personal Weather Stations






























Interactive Weather Map
Tropical Storm Tracking
New forecast layout! Learn more

10-Day Weather Forecast

Advertisements
Track Severe Weather on mobile